createdAt,value
2022-07-29T00:01:58.966Z,17.94
2022-07-29T00:04:31.041Z,17.95
2022-07-29T00:07:04.263Z,17.94
2022-07-29T00:09:41.897Z,17.94
2022-07-29T00:12:26.461Z,17.92
2022-07-29T00:14:58.757Z,17.92
2022-07-29T00:17:30.712Z,17.92
2022-07-29T00:20:02.844Z,17.91
2022-07-29T00:22:38.503Z,17.90
2022-07-29T00:25:10.689Z,17.88
2022-07-29T00:27:42.561Z,17.88
2022-07-29T00:30:14.498Z,17.84
2022-07-29T00:32:46.422Z,17.80
2022-07-29T00:35:37.169Z,17.75
2022-07-29T00:38:09.014Z,17.72
2022-07-29T00:40:44.089Z,17.70
2022-07-29T00:43:16.830Z,17.70
2022-07-29T00:45:48.712Z,17.68
2022-07-29T00:48:20.574Z,17.70
2022-07-29T00:50:52.563Z,17.70
2022-07-29T00:53:25.950Z,17.68
2022-07-29T00:55:59.911Z,17.66
2022-07-29T00:58:32.354Z,17.63
2022-07-29T01:01:04.300Z,17.63
2022-07-29T01:03:36.244Z,17.61
2022-07-29T01:06:08.162Z,17.60
2022-07-29T01:08:41.068Z,17.60
2022-07-29T01:11:13.476Z,17.60
2022-07-29T01:13:47.036Z,17.59
2022-07-29T01:16:27.053Z,17.58
2022-07-29T01:19:08.978Z,17.57
2022-07-29T01:21:56.399Z,17.57
2022-07-29T01:24:56.214Z,17.56
2022-07-29T01:27:59.032Z,17.58
2022-07-29T01:30:31.940Z,17.58
2022-07-29T01:33:07.910Z,17.56
2022-07-29T01:35:41.544Z,17.57
2022-07-29T01:38:21.746Z,17.55
2022-07-29T01:40:57.411Z,17.54
2022-07-29T01:43:43.180Z,17.54
2022-07-29T01:46:21.416Z,17.51
2022-07-29T01:48:57.287Z,17.51
2022-07-29T01:51:42.643Z,17.51
2022-07-29T01:54:14.835Z,17.49
2022-07-29T01:56:50.170Z,17.50
2022-07-29T01:59:22.814Z,17.48
2022-07-29T02:01:56.047Z,17.47
2022-07-29T02:04:30.198Z,17.47
2022-07-29T02:07:06.363Z,17.45
2022-07-29T02:09:39.690Z,17.40
2022-07-29T02:12:12.852Z,17.39
2022-07-29T02:14:53.080Z,17.38
2022-07-29T02:17:28.427Z,17.37
2022-07-29T02:20:04.030Z,17.37
2022-07-29T02:22:38.646Z,17.36
2022-07-29T02:25:13.881Z,17.36
2022-07-29T02:27:48.404Z,17.35
2022-07-29T02:30:23.136Z,17.33
2022-07-29T02:32:58.865Z,17.28
2022-07-29T02:35:34.528Z,17.25
2022-07-29T02:38:25.841Z,17.22
2022-07-29T02:40:58.007Z,17.23
2022-07-29T02:43:31.770Z,17.23
2022-07-29T02:46:12.698Z,17.22
2022-07-29T02:49:20.484Z,17.23
2022-07-29T02:51:56.786Z,17.22
2022-07-29T02:54:32.813Z,17.22
2022-07-29T02:57:10.723Z,17.23
2022-07-29T02:59:44.369Z,17.23
2022-07-29T03:02:17.478Z,17.23
2022-07-29T03:04:51.556Z,17.20
2022-07-29T03:07:23.886Z,17.20
2022-07-29T03:09:56.733Z,17.23
2022-07-29T03:12:29.705Z,17.23
2022-07-29T03:15:02.332Z,17.21
2022-07-29T03:17:34.898Z,17.23
2022-07-29T03:20:08.598Z,17.23
2022-07-29T03:22:44.534Z,17.26
2022-07-29T03:25:19.264Z,17.23
2022-07-29T03:27:51.236Z,17.26
2022-07-29T03:30:23.694Z,17.26
2022-07-29T03:32:56.680Z,17.28
2022-07-29T03:35:32.605Z,17.27
2022-07-29T03:38:04.464Z,17.28
2022-07-29T03:40:43.630Z,17.28
2022-07-29T03:43:16.825Z,17.29
2022-07-29T03:45:52.036Z,17.28
2022-07-29T03:48:25.367Z,17.28
2022-07-29T03:50:57.510Z,17.28
2022-07-29T03:53:29.794Z,17.27
2022-07-29T03:56:22.856Z,17.29
2022-07-29T03:58:55.712Z,17.31
2022-07-29T04:01:29.184Z,17.32
2022-07-29T04:04:02.209Z,17.32
2022-07-29T04:06:40.944Z,17.28
2022-07-29T04:09:13.361Z,17.28
2022-07-29T04:12:00.715Z,17.29
2022-07-29T04:14:36.329Z,17.30
2022-07-29T04:17:08.837Z,17.31
2022-07-29T04:19:40.777Z,17.34
2022-07-29T04:22:12.701Z,17.37
2022-07-29T04:24:44.712Z,17.41
2022-07-29T04:27:16.644Z,17.45
2022-07-29T04:29:56.371Z,17.47
2022-07-29T04:32:29.401Z,17.48
2022-07-29T04:35:01.298Z,17.52
2022-07-29T04:37:33.147Z,17.54
2022-07-29T04:40:05.756Z,17.58
2022-07-29T04:42:46.451Z,17.59
2022-07-29T04:45:22.663Z,17.62
2022-07-29T04:47:55.912Z,17.63
2022-07-29T04:50:27.868Z,17.66
2022-07-29T04:52:59.749Z,17.70
2022-07-29T04:55:31.978Z,17.70
2022-07-29T04:58:03.854Z,17.73
2022-07-29T05:00:35.826Z,17.73
2022-07-29T05:03:09.787Z,17.77
2022-07-29T05:05:41.938Z,17.78
2022-07-29T05:08:14.002Z,17.83
2022-07-29T05:10:46.568Z,17.85
2022-07-29T05:13:18.608Z,17.89
2022-07-29T05:15:51.368Z,17.91
2022-07-29T05:18:26.197Z,17.96
2022-07-29T05:21:01.494Z,18.01
2022-07-29T05:23:33.909Z,18.02
2022-07-29T05:26:06.150Z,18.02
2022-07-29T05:28:38.687Z,18.05
2022-07-29T05:31:10.593Z,18.04
2022-07-29T05:33:43.086Z,18.04
2022-07-29T05:36:15.115Z,18.08
2022-07-29T05:38:47.011Z,18.07
2022-07-29T05:41:19.772Z,18.11
2022-07-29T05:43:51.843Z,18.14
2022-07-29T05:46:23.798Z,18.17
2022-07-29T05:48:55.735Z,18.17
2022-07-29T05:51:27.668Z,18.17
2022-07-29T05:53:59.586Z,18.21
2022-07-29T05:56:31.560Z,18.30
2022-07-29T05:59:04.197Z,18.41
2022-07-29T06:01:50.650Z,18.50
2022-07-29T06:04:23.089Z,18.58
2022-07-29T06:06:55.096Z,18.63
2022-07-29T06:09:27.082Z,18.67
2022-07-29T06:11:59.385Z,18.73
2022-07-29T06:14:31.404Z,18.74
2022-07-29T06:17:03.260Z,18.76
2022-07-29T06:19:36.349Z,18.83
2022-07-29T06:22:08.208Z,18.90
2022-07-29T06:24:42.519Z,18.97
2022-07-29T06:27:14.770Z,19.00
2022-07-29T06:29:46.666Z,19.06
2022-07-29T06:32:18.763Z,19.10
2022-07-29T06:35:11.875Z,19.14
2022-07-29T06:37:46.689Z,19.15
2022-07-29T06:40:39.524Z,19.17
2022-07-29T06:43:11.870Z,19.27
2022-07-29T06:45:44.325Z,19.33
2022-07-29T06:48:16.302Z,19.40
2022-07-29T06:50:48.285Z,19.48
2022-07-29T06:53:20.157Z,19.52
2022-07-29T06:55:52.483Z,19.57
2022-07-29T06:58:24.803Z,19.58
2022-07-29T07:01:05.221Z,19.61
2022-07-29T07:03:37.297Z,19.66
2022-07-29T07:06:14.630Z,19.67
2022-07-29T07:08:47.031Z,19.71
2022-07-29T07:11:19.056Z,19.74
2022-07-29T07:13:51.228Z,19.81
2022-07-29T07:16:23.619Z,19.91
2022-07-29T07:18:55.685Z,20.00
2022-07-29T07:21:30.301Z,20.09
2022-07-29T07:24:02.878Z,20.14
2022-07-29T07:26:34.905Z,20.16
2022-07-29T07:29:06.959Z,20.19
2022-07-29T07:31:39.169Z,20.19
2022-07-29T07:34:11.273Z,20.22
2022-07-29T07:36:43.102Z,20.28
2022-07-29T07:39:15.078Z,20.30
2022-07-29T07:41:47.302Z,20.33
2022-07-29T07:44:19.485Z,20.41
2022-07-29T07:46:51.524Z,20.50
2022-07-29T07:49:24.873Z,20.59
2022-07-29T07:51:57.314Z,20.64
2022-07-29T07:54:29.240Z,20.70
2022-07-29T07:57:01.569Z,20.76
2022-07-29T07:59:33.686Z,20.82
2022-07-29T08:02:06.314Z,20.87
2022-07-29T08:04:38.941Z,20.92
2022-07-29T08:07:10.953Z,21.00
2022-07-29T08:09:42.968Z,21.05
2022-07-29T08:12:14.932Z,21.10
2022-07-29T08:14:46.805Z,21.14
2022-07-29T08:17:18.781Z,21.21
2022-07-29T08:19:50.905Z,21.26
2022-07-29T08:22:22.935Z,21.35
2022-07-29T08:24:56.976Z,21.47
2022-07-29T08:27:43.540Z,21.61
2022-07-29T08:30:16.701Z,21.76
2022-07-29T08:32:54.060Z,21.87
2022-07-29T08:35:26.509Z,21.99
2022-07-29T08:37:59.278Z,22.07
2022-07-29T08:40:32.433Z,22.13
2022-07-29T08:43:09.290Z,22.18
2022-07-29T08:45:48.072Z,22.21
2022-07-29T08:48:22.432Z,22.30
2022-07-29T08:50:56.896Z,22.38
2022-07-29T08:53:30.349Z,22.47
2022-07-29T08:56:02.961Z,22.55
2022-07-29T08:58:36.915Z,22.64
2022-07-29T09:01:12.643Z,22.74
2022-07-29T09:03:47.280Z,22.82
2022-07-29T09:06:22.467Z,22.88
2022-07-29T09:08:57.162Z,22.94
2022-07-29T09:11:29.546Z,23.03
2022-07-29T09:14:01.908Z,23.14
2022-07-29T09:16:53.597Z,23.26
2022-07-29T09:19:28.908Z,23.40
2022-07-29T09:22:03.721Z,23.53
2022-07-29T09:24:36.136Z,23.66
2022-07-29T09:27:12.194Z,23.76
2022-07-29T09:29:44.356Z,23.87
2022-07-29T09:32:16.432Z,23.96
2022-07-29T09:34:48.694Z,24.04
2022-07-29T09:37:29.890Z,24.13
2022-07-29T09:40:12.963Z,24.19
2022-07-29T09:42:46.870Z,24.24
2022-07-29T09:45:33.298Z,24.28
2022-07-29T09:48:16.270Z,24.34
2022-07-29T09:50:51.967Z,24.40
2022-07-29T09:53:36.860Z,24.46
2022-07-29T09:56:09.241Z,24.48
2022-07-29T09:58:41.600Z,24.46
2022-07-29T10:01:13.598Z,24.46
2022-07-29T10:03:53.102Z,24.49
2022-07-29T10:06:25.118Z,24.54
2022-07-29T10:09:09.278Z,24.59
2022-07-29T10:11:49.319Z,24.59
2022-07-29T10:14:29.489Z,24.61
2022-07-29T10:17:04.692Z,24.57
2022-07-29T10:19:37.963Z,24.53
2022-07-29T10:22:11.086Z,24.49
2022-07-29T10:24:43.081Z,24.47
2022-07-29T10:27:15.117Z,24.43
2022-07-29T10:29:47.079Z,24.42
2022-07-29T10:32:30.832Z,24.43
2022-07-29T10:35:21.795Z,24.46
2022-07-29T10:38:08.083Z,24.49
2022-07-29T10:41:09.558Z,24.49
2022-07-29T10:43:44.411Z,24.52
2022-07-29T10:46:16.761Z,24.61
2022-07-29T10:49:15.436Z,24.71
2022-07-29T10:52:10.298Z,24.80
2022-07-29T10:54:54.693Z,24.93
2022-07-29T10:57:53.711Z,25.12
2022-07-29T11:00:27.700Z,25.29
2022-07-29T11:03:04.505Z,25.41
2022-07-29T11:05:59.924Z,25.55
2022-07-29T11:08:32.289Z,25.69
2022-07-29T11:14:55.731Z,25.90
2022-07-29T11:17:47.127Z,26.02
2022-07-29T11:20:50.878Z,26.18
2022-07-29T11:23:40.364Z,26.33
2022-07-29T11:26:26.107Z,26.43
2022-07-29T11:29:07.415Z,26.61
2022-07-29T11:31:43.920Z,26.74
2022-07-29T11:34:33.388Z,26.87
2022-07-29T11:37:13.665Z,27.02
2022-07-29T11:40:09.223Z,27.12
2022-07-29T11:42:46.335Z,27.27
2022-07-29T11:45:43.055Z,27.42
2022-07-29T11:48:31.920Z,27.55
2022-07-29T11:51:11.047Z,27.71
2022-07-29T11:56:45.657Z,28.97
2022-07-29T11:59:20.619Z,30.02
2022-07-29T12:02:18.521Z,31.25
2022-07-29T12:04:58.105Z,32.76
2022-07-29T12:07:02.299Z,28.07
2022-07-29T12:07:35.705Z,34.07
2022-07-29T12:10:11.648Z,35.34
2022-07-29T12:12:53.788Z,36.55
2022-07-29T12:15:45.698Z,37.50
2022-07-29T12:18:24.370Z,38.20
2022-07-29T12:21:03.265Z,38.32
2022-07-29T12:23:35.807Z,38.13
2022-07-29T12:26:11.019Z,37.84
2022-07-29T12:28:53.594Z,37.90
2022-07-29T12:31:43.757Z,38.02
2022-07-29T12:34:17.199Z,38.41
2022-07-29T12:36:49.369Z,38.86
2022-07-29T12:39:21.641Z,38.88
2022-07-29T12:42:04.631Z,38.74
2022-07-29T12:44:46.734Z,38.64
2022-07-29T12:47:19.439Z,38.75
2022-07-29T12:49:52.107Z,39.17
2022-07-29T12:52:25.480Z,39.55
2022-07-29T12:54:58.174Z,39.86
2022-07-29T12:57:30.238Z,40.14
2022-07-29T13:00:13.617Z,40.08
2022-07-29T13:02:56.110Z,40.08
2022-07-29T13:05:49.186Z,40.28
2022-07-29T13:08:22.284Z,40.63
2022-07-29T13:10:55.019Z,41.11
2022-07-29T13:13:26.880Z,41.61
2022-07-29T13:16:08.846Z,42.12
2022-07-29T13:18:42.213Z,42.47
2022-07-29T13:21:16.595Z,42.48
2022-07-29T13:23:50.818Z,42.28
2022-07-29T13:26:22.962Z,42.43
2022-07-29T13:28:55.974Z,42.33
2022-07-29T13:31:28.066Z,41.93
2022-07-29T13:34:00.053Z,41.45
2022-07-29T13:36:32.067Z,41.09
2022-07-29T13:39:04.423Z,40.79
2022-07-29T13:41:36.393Z,40.53
2022-07-29T13:44:09.028Z,40.42
2022-07-29T13:46:42.247Z,40.41
2022-07-29T13:49:14.203Z,40.12
2022-07-29T13:51:46.199Z,39.72
2022-07-29T13:54:18.434Z,39.13
2022-07-29T13:56:51.584Z,38.39
2022-07-29T13:59:23.999Z,37.61
2022-07-29T14:01:58.723Z,37.07
2022-07-29T14:04:31.153Z,36.71
2022-07-29T14:07:04.001Z,36.58
2022-07-29T14:09:41.051Z,36.20
2022-07-29T14:12:14.015Z,35.74
2022-07-29T14:14:47.294Z,35.29
2022-07-29T14:17:19.478Z,34.55
2022-07-29T14:19:51.443Z,33.90
2022-07-29T14:22:25.363Z,33.42
2022-07-29T14:24:57.543Z,33.05
2022-07-29T14:27:37.410Z,32.75
2022-07-29T14:30:11.148Z,32.45
2022-07-29T14:32:43.245Z,32.19
2022-07-29T14:35:15.585Z,31.97
2022-07-29T14:37:47.698Z,31.82
2022-07-29T14:40:19.662Z,31.67
2022-07-29T14:42:51.546Z,31.64
2022-07-29T14:45:23.794Z,32.26
2022-07-29T14:47:57.155Z,33.13
2022-07-29T14:50:31.891Z,33.95
2022-07-29T14:53:04.586Z,34.72
2022-07-29T14:55:36.657Z,35.37
2022-07-29T14:58:13.248Z,35.85
2022-07-29T15:00:48.259Z,36.24
2022-07-29T15:03:23.769Z,36.04
2022-07-29T15:05:56.449Z,35.87
2022-07-29T15:08:30.841Z,35.75
2022-07-29T15:11:02.872Z,35.52
2022-07-29T15:13:35.706Z,34.82
2022-07-29T15:16:08.474Z,34.04
2022-07-29T15:18:40.500Z,33.47
2022-07-29T15:21:12.708Z,33.06
2022-07-29T15:23:44.994Z,32.77
2022-07-29T15:26:17.083Z,32.46
2022-07-29T15:28:49.182Z,32.19
2022-07-29T15:31:21.405Z,31.77
2022-07-29T15:33:58.108Z,31.40
2022-07-29T15:39:23.590Z,30.86
2022-07-29T15:41:56.073Z,30.66
2022-07-29T15:44:28.544Z,30.48
2022-07-29T15:47:03.682Z,30.18
2022-07-29T15:49:46.439Z,30.08
2022-07-29T15:52:25.356Z,30.01
2022-07-29T15:54:58.437Z,29.78
2022-07-29T15:57:30.375Z,29.64
2022-07-29T16:00:02.889Z,29.54
2022-07-29T16:02:40.082Z,29.45
2022-07-29T16:05:11.961Z,29.39
2022-07-29T16:07:44.338Z,29.33
2022-07-29T16:10:16.393Z,29.21
2022-07-29T16:12:48.437Z,29.00
2022-07-29T16:15:20.528Z,28.74
2022-07-29T16:17:52.575Z,28.49
2022-07-29T16:20:24.496Z,28.42
2022-07-29T16:22:56.541Z,28.30
2022-07-29T16:25:50.311Z,28.25
2022-07-29T16:28:20.737Z,28.29
2022-07-29T16:30:52.844Z,28.29
2022-07-29T16:33:25.099Z,28.26
2022-07-29T16:35:57.263Z,28.25
2022-07-29T16:38:29.319Z,28.27
2022-07-29T16:41:01.384Z,28.23
2022-07-29T16:43:33.419Z,28.20
2022-07-29T16:46:09.011Z,28.11
2022-07-29T16:48:45.414Z,28.02
2022-07-29T16:51:17.560Z,27.99
2022-07-29T16:53:50.429Z,27.96
2022-07-29T16:56:22.499Z,27.92
2022-07-29T16:58:54.393Z,27.91
2022-07-29T17:01:26.529Z,27.90
2022-07-29T17:04:07.587Z,27.82
2022-07-29T17:06:40.834Z,27.69
2022-07-29T17:09:15.229Z,27.53
2022-07-29T17:11:54.920Z,27.38
2022-07-29T17:14:30.482Z,27.25
2022-07-29T17:17:03.145Z,27.19
2022-07-29T17:19:35.884Z,27.12
2022-07-29T17:22:14.036Z,26.98
2022-07-29T17:24:50.694Z,26.85
2022-07-29T17:27:22.855Z,26.73
2022-07-29T17:29:55.009Z,26.62
2022-07-29T17:32:27.069Z,26.48
2022-07-29T17:34:59.029Z,26.36
2022-07-29T17:37:31.184Z,26.27
2022-07-29T17:40:03.209Z,26.25
2022-07-29T17:42:35.081Z,26.22
2022-07-29T17:45:07.586Z,26.21
2022-07-29T17:47:39.511Z,26.22
2022-07-29T17:50:11.808Z,26.24
2022-07-29T17:52:43.744Z,26.28
2022-07-29T17:55:15.858Z,26.27
2022-07-29T17:57:47.710Z,26.28
2022-07-29T18:00:22.890Z,26.29
2022-07-29T18:02:55.051Z,26.25
2022-07-29T18:05:27.152Z,26.25
2022-07-29T18:07:59.275Z,26.25
2022-07-29T18:10:31.377Z,26.21
2022-07-29T18:13:04.963Z,26.15
2022-07-29T18:15:36.773Z,26.08
2022-07-29T18:18:09.141Z,26.00
2022-07-29T18:20:42.718Z,25.95
2022-07-29T18:23:14.981Z,25.88
2022-07-29T18:25:46.813Z,25.73
2022-07-29T18:28:19.215Z,25.65
2022-07-29T18:30:53.048Z,25.60
2022-07-29T18:33:25.283Z,25.56
2022-07-29T18:36:10.675Z,25.55
2022-07-29T18:38:43.952Z,25.49
2022-07-29T18:41:16.072Z,25.44
2022-07-29T18:43:48.187Z,25.39
2022-07-29T18:46:20.401Z,25.34
2022-07-29T18:48:53.502Z,25.31
2022-07-29T18:51:27.701Z,25.26
2022-07-29T18:53:59.742Z,25.23
2022-07-29T18:56:32.425Z,25.19
2022-07-29T18:59:04.624Z,25.13
2022-07-29T19:01:37.880Z,25.10
2022-07-29T19:04:10.153Z,25.07
2022-07-29T19:06:42.061Z,25.03
2022-07-29T19:09:14.146Z,24.99
2022-07-29T19:11:46.040Z,24.94
2022-07-29T19:14:18.000Z,24.91
2022-07-29T19:16:50.003Z,24.85
2022-07-29T19:19:21.983Z,24.80
2022-07-29T19:21:53.970Z,24.77
2022-07-29T19:24:25.934Z,24.71
2022-07-29T19:26:58.422Z,24.67
2022-07-29T19:29:32.277Z,24.62
2022-07-29T19:32:04.320Z,24.59
2022-07-29T19:34:36.668Z,24.56
2022-07-29T19:37:08.556Z,24.52
2022-07-29T19:39:40.797Z,24.46
2022-07-29T19:42:12.750Z,24.41
2022-07-29T19:44:44.844Z,24.36
2022-07-29T19:47:17.261Z,24.28
2022-07-29T19:49:49.613Z,24.27
2022-07-29T19:52:21.514Z,24.24
2022-07-29T19:54:53.571Z,24.24
2022-07-29T19:57:25.489Z,24.19
2022-07-29T19:59:58.573Z,24.17
2022-07-29T20:02:30.502Z,24.14
2022-07-29T20:05:03.121Z,24.11
2022-07-29T20:07:35.591Z,24.09
2022-07-29T20:10:08.425Z,24.07
2022-07-29T20:12:42.577Z,24.06
2022-07-29T20:15:16.321Z,24.01
2022-07-29T20:17:48.553Z,23.97
2022-07-29T20:20:22.390Z,23.93
2022-07-29T20:22:54.615Z,23.89
2022-07-29T20:25:27.448Z,23.89
2022-07-29T20:28:00.100Z,23.89
2022-07-29T20:30:32.348Z,23.86
2022-07-29T20:33:05.174Z,23.86
2022-07-29T20:35:37.559Z,23.85
2022-07-29T20:38:09.704Z,23.84
2022-07-29T20:40:42.139Z,23.82
2022-07-29T20:43:14.924Z,23.80
2022-07-29T20:45:48.607Z,23.79
2022-07-29T20:48:20.888Z,23.79
2022-07-29T20:50:55.003Z,23.79
2022-07-29T20:53:27.472Z,23.78
2022-07-29T20:56:00.034Z,23.78
2022-07-29T20:58:34.079Z,23.78
2022-07-29T21:01:07.355Z,23.77
2022-07-29T21:03:40.003Z,23.76
2022-07-29T21:06:12.530Z,23.74
2022-07-29T21:08:44.632Z,23.71
2022-07-29T21:11:17.127Z,23.67
2022-07-29T21:13:54.059Z,23.64
2022-07-29T21:16:28.914Z,23.62
2022-07-29T21:19:02.518Z,23.58
2022-07-29T21:21:34.945Z,23.54
2022-07-29T21:24:08.287Z,23.52
2022-07-29T21:26:50.743Z,23.50
2022-07-29T21:29:31.960Z,23.47
2022-07-29T21:32:04.602Z,23.46
2022-07-29T21:34:36.824Z,23.42
2022-07-29T21:37:09.155Z,23.41
2022-07-29T21:39:41.488Z,23.38
2022-07-29T21:42:13.861Z,23.37
2022-07-29T21:44:46.093Z,23.35
2022-07-29T21:47:18.924Z,23.32
2022-07-29T21:49:52.910Z,23.28
2022-07-29T21:52:25.215Z,23.24
2022-07-29T21:54:58.060Z,23.21
2022-07-29T21:57:30.320Z,23.19
2022-07-29T22:00:03.462Z,23.18
2022-07-29T22:02:45.275Z,23.15
2022-07-29T22:05:17.587Z,23.12
2022-07-29T22:07:54.277Z,23.10
2022-07-29T22:10:30.944Z,23.08
2022-07-29T22:13:03.507Z,23.07
2022-07-29T22:15:35.810Z,23.03
2022-07-29T22:18:08.037Z,23.02
2022-07-29T22:20:42.518Z,22.99
2022-07-29T22:23:15.000Z,22.98
2022-07-29T22:25:47.357Z,22.99
2022-07-29T22:28:19.670Z,22.99
2022-07-29T22:30:52.013Z,22.98
2022-07-29T22:33:24.258Z,22.98
2022-07-29T22:35:56.415Z,22.97
2022-07-29T22:38:29.315Z,22.98
2022-07-29T22:41:01.716Z,22.98
2022-07-29T22:43:35.898Z,22.98
2022-07-29T22:46:09.936Z,22.96
2022-07-29T22:48:42.644Z,22.94
2022-07-29T22:51:14.989Z,22.92
2022-07-29T22:53:47.351Z,22.90
2022-07-29T22:56:20.827Z,22.89
2022-07-29T22:58:55.586Z,22.87
2022-07-29T23:01:37.301Z,22.84
2022-07-29T23:04:10.567Z,22.80
2022-07-29T23:06:42.799Z,22.78
2022-07-29T23:09:15.331Z,22.73
2022-07-29T23:11:47.659Z,22.71
2022-07-29T23:14:19.894Z,22.69
2022-07-29T23:16:52.153Z,22.67
2022-07-29T23:19:24.428Z,22.64
2022-07-29T23:21:56.754Z,22.58
2022-07-29T23:24:29.126Z,22.57
2022-07-29T23:27:01.795Z,22.54
2022-07-29T23:29:36.780Z,22.52
2022-07-29T23:32:09.397Z,22.49
2022-07-29T23:34:41.571Z,22.49
2022-07-29T23:37:14.116Z,22.48
2022-07-29T23:39:46.428Z,22.48
2022-07-29T23:42:18.700Z,22.48
2022-07-29T23:44:50.921Z,22.49
2022-07-29T23:47:23.226Z,22.49
2022-07-29T23:49:56.181Z,22.49
2022-07-29T23:52:28.503Z,22.49
2022-07-29T23:55:37.157Z,22.48
2022-07-29T23:57:53.635Z,22.49
